sensor_id;sensor_type;location;lat;lon;timestamp;temperature;humidity
58096;DHT22;43908;53.038;6.666;2022-08-21T00:02:22;15.30;99.90
58096;DHT22;43908;53.038;6.666;2022-08-21T00:04:48;15.20;99.90
58096;DHT22;43908;53.038;6.666;2022-08-21T00:07:13;15.20;99.90
58096;DHT22;43908;53.038;6.666;2022-08-21T00:09:39;15.20;99.90
58096;DHT22;43908;53.038;6.666;2022-08-21T00:12:05;15.20;99.90
58096;DHT22;43908;53.038;6.666;2022-08-21T00:14:30;15.10;99.90
58096;DHT22;43908;53.038;6.666;2022-08-21T00:16:56;15.10;99.90
58096;DHT22;43908;53.038;6.666;2022-08-21T00:19:21;15.10;99.90
58096;DHT22;43908;53.038;6.666;2022-08-21T00:21:53;15.00;99.90
58096;DHT22;43908;53.038;6.666;2022-08-21T00:24:19;15.00;99.90
58096;DHT22;43908;53.038;6.666;2022-08-21T00:26:45;15.00;99.90
58096;DHT22;43908;53.038;6.666;2022-08-21T00:29:11;15.00;99.90
58096;DHT22;43908;53.038;6.666;2022-08-21T00:31:36;14.90;99.90
58096;DHT22;43908;53.038;6.666;2022-08-21T00:34:02;14.90;99.90
58096;DHT22;43908;53.038;6.666;2022-08-21T00:36:28;14.90;99.90
58096;DHT22;43908;53.038;6.666;2022-08-21T00:38:54;14.80;99.90
58096;DHT22;43908;53.038;6.666;2022-08-21T00:41:20;14.80;99.90
58096;DHT22;43908;53.038;6.666;2022-08-21T00:43:46;14.80;99.90
58096;DHT22;43908;53.038;6.666;2022-08-21T00:46:11;14.70;99.90
58096;DHT22;43908;53.038;6.666;2022-08-21T00:48:37;14.70;99.90
58096;DHT22;43908;53.038;6.666;2022-08-21T00:51:05;14.60;99.90
58096;DHT22;43908;53.038;6.666;2022-08-21T00:53:31;14.60;99.90
58096;DHT22;43908;53.038;6.666;2022-08-21T00:55:57;14.60;99.90
58096;DHT22;43908;53.038;6.666;2022-08-21T00:58:25;14.60;99.90
58096;DHT22;43908;53.038;6.666;2022-08-21T01:00:51;14.60;99.90
58096;DHT22;43908;53.038;6.666;2022-08-21T01:03:20;14.50;99.90
58096;DHT22;43908;53.038;6.666;2022-08-21T01:05:45;14.50;99.90
58096;DHT22;43908;53.038;6.666;2022-08-21T01:08:11;14.50;99.90
58096;DHT22;43908;53.038;6.666;2022-08-21T01:10:38;14.40;99.90
58096;DHT22;43908;53.038;6.666;2022-08-21T01:13:08;14.30;99.90
58096;DHT22;43908;53.038;6.666;2022-08-21T01:15:36;14.30;99.90
58096;DHT22;43908;53.038;6.666;2022-08-21T01:18:03;14.30;99.90
58096;DHT22;43908;53.038;6.666;2022-08-21T01:20:28;14.20;99.90
58096;DHT22;43908;53.038;6.666;2022-08-21T01:22:54;14.20;99.90
58096;DHT22;43908;53.038;6.666;2022-08-21T01:25:20;14.20;99.90
58096;DHT22;43908;53.038;6.666;2022-08-21T01:27:45;14.10;99.90
58096;DHT22;43908;53.038;6.666;2022-08-21T01:30:17;14.10;99.90
58096;DHT22;43908;53.038;6.666;2022-08-21T01:32:43;14.10;99.90
58096;DHT22;43908;53.038;6.666;2022-08-21T01:35:09;14.00;99.90
58096;DHT22;43908;53.038;6.666;2022-08-21T01:37:34;14.00;99.90
58096;DHT22;43908;53.038;6.666;2022-08-21T01:40:00;14.00;99.90
58096;DHT22;43908;53.038;6.666;2022-08-21T01:42:26;14.00;99.90
58096;DHT22;43908;53.038;6.666;2022-08-21T01:44:51;13.90;99.90
58096;DHT22;43908;53.038;6.666;2022-08-21T01:47:17;13.90;99.90
58096;DHT22;43908;53.038;6.666;2022-08-21T01:49:43;13.90;99.90
58096;DHT22;43908;53.038;6.666;2022-08-21T01:52:09;13.90;99.90
58096;DHT22;43908;53.038;6.666;2022-08-21T01:54:36;13.90;99.90
58096;DHT22;43908;53.038;6.666;2022-08-21T01:57:01;13.80;99.90
58096;DHT22;43908;53.038;6.666;2022-08-21T01:59:27;13.80;99.90
58096;DHT22;43908;53.038;6.666;2022-08-21T02:01:53;13.80;99.90
58096;DHT22;43908;53.038;6.666;2022-08-21T02:04:21;13.70;99.90
58096;DHT22;43908;53.038;6.666;2022-08-21T02:06:47;13.70;99.90
58096;DHT22;43908;53.038;6.666;2022-08-21T02:09:12;13.70;99.90
58096;DHT22;43908;53.038;6.666;2022-08-21T02:11:39;13.70;99.90
58096;DHT22;43908;53.038;6.666;2022-08-21T02:14:08;13.60;99.90
58096;DHT22;43908;53.038;6.666;2022-08-21T02:16:34;13.60;99.90
58096;DHT22;43908;53.038;6.666;2022-08-21T02:19:00;13.60;99.90
58096;DHT22;43908;53.038;6.666;2022-08-21T02:21:26;13.60;99.90
58096;DHT22;43908;53.038;6.666;2022-08-21T02:23:51;13.60;99.90
58096;DHT22;43908;53.038;6.666;2022-08-21T02:26:17;13.60;99.90
58096;DHT22;43908;53.038;6.666;2022-08-21T02:28:42;13.50;99.90
58096;DHT22;43908;53.038;6.666;2022-08-21T02:31:08;13.50;99.90
58096;DHT22;43908;53.038;6.666;2022-08-21T02:33:33;13.50;99.90
58096;DHT22;43908;53.038;6.666;2022-08-21T02:35:59;13.50;99.90
58096;DHT22;43908;53.038;6.666;2022-08-21T02:38:26;13.40;99.90
58096;DHT22;43908;53.038;6.666;2022-08-21T02:40:52;13.40;99.90
58096;DHT22;43908;53.038;6.666;2022-08-21T02:43:19;13.40;99.90
58096;DHT22;43908;53.038;6.666;2022-08-21T02:45:45;13.40;99.90
58096;DHT22;43908;53.038;6.666;2022-08-21T02:48:12;13.30;99.90
58096;DHT22;43908;53.038;6.666;2022-08-21T02:50:38;13.30;99.90
58096;DHT22;43908;53.038;6.666;2022-08-21T02:53:05;13.30;99.90
58096;DHT22;43908;53.038;6.666;2022-08-21T02:55:32;13.30;99.90
58096;DHT22;43908;53.038;6.666;2022-08-21T02:57:58;13.30;99.90
58096;DHT22;43908;53.038;6.666;2022-08-21T03:00:24;13.30;99.90
58096;DHT22;43908;53.038;6.666;2022-08-21T03:02:51;13.30;99.90
58096;DHT22;43908;53.038;6.666;2022-08-21T03:05:16;13.30;99.90
58096;DHT22;43908;53.038;6.666;2022-08-21T03:07:42;13.30;99.90
58096;DHT22;43908;53.038;6.666;2022-08-21T03:10:08;13.30;99.90
58096;DHT22;43908;53.038;6.666;2022-08-21T03:12:34;13.20;99.90
58096;DHT22;43908;53.038;6.666;2022-08-21T03:15:01;13.20;99.90
58096;DHT22;43908;53.038;6.666;2022-08-21T03:17:26;13.20;99.90
58096;DHT22;43908;53.038;6.666;2022-08-21T03:19:52;13.20;99.90
58096;DHT22;43908;53.038;6.666;2022-08-21T03:22:18;13.20;99.90
58096;DHT22;43908;53.038;6.666;2022-08-21T03:24:43;13.10;99.90
58096;DHT22;43908;53.038;6.666;2022-08-21T03:27:10;13.10;99.90
58096;DHT22;43908;53.038;6.666;2022-08-21T03:29:37;13.10;99.90
58096;DHT22;43908;53.038;6.666;2022-08-21T03:32:03;13.10;99.90
58096;DHT22;43908;53.038;6.666;2022-08-21T03:34:29;13.10;99.90
58096;DHT22;43908;53.038;6.666;2022-08-21T03:36:54;13.10;99.90
58096;DHT22;43908;53.038;6.666;2022-08-21T03:39:20;13.10;99.90
58096;DHT22;43908;53.038;6.666;2022-08-21T03:41:45;13.10;99.90
58096;DHT22;43908;53.038;6.666;2022-08-21T03:44:12;13.10;99.90
58096;DHT22;43908;53.038;6.666;2022-08-21T03:46:38;13.10;99.90
58096;DHT22;43908;53.038;6.666;2022-08-21T03:49:05;13.10;99.90
58096;DHT22;43908;53.038;6.666;2022-08-21T03:51:31;13.10;99.90
58096;DHT22;43908;53.038;6.666;2022-08-21T03:53:58;13.10;99.90
58096;DHT22;43908;53.038;6.666;2022-08-21T03:56:24;13.00;99.90
58096;DHT22;43908;53.038;6.666;2022-08-21T03:58:49;13.00;99.90
58096;DHT22;43908;53.038;6.666;2022-08-21T04:01:15;13.00;99.90
58096;DHT22;43908;53.038;6.666;2022-08-21T04:03:40;13.00;99.90
58096;DHT22;43908;53.038;6.666;2022-08-21T04:06:06;13.00;99.90
58096;DHT22;43908;53.038;6.666;2022-08-21T04:08:32;13.00;99.90
58096;DHT22;43908;53.038;6.666;2022-08-21T04:10:58;13.00;99.90
58096;DHT22;43908;53.038;6.666;2022-08-21T04:13:24;13.00;99.90
58096;DHT22;43908;53.038;6.666;2022-08-21T04:15:49;13.00;99.90
58096;DHT22;43908;53.038;6.666;2022-08-21T04:18:15;13.00;99.90
58096;DHT22;43908;53.038;6.666;2022-08-21T04:20:41;12.90;99.90
58096;DHT22;43908;53.038;6.666;2022-08-21T04:23:08;12.90;99.90
58096;DHT22;43908;53.038;6.666;2022-08-21T04:25:33;12.90;99.90
58096;DHT22;43908;53.038;6.666;2022-08-21T04:27:59;12.90;99.90
58096;DHT22;43908;53.038;6.666;2022-08-21T04:30:25;12.90;99.90
58096;DHT22;43908;53.038;6.666;2022-08-21T04:32:51;12.90;99.90
58096;DHT22;43908;53.038;6.666;2022-08-21T04:35:19;12.90;99.90
58096;DHT22;43908;53.038;6.666;2022-08-21T04:37:44;12.90;99.90
58096;DHT22;43908;53.038;6.666;2022-08-21T04:40:11;12.90;99.90
58096;DHT22;43908;53.038;6.666;2022-08-21T04:42:44;13.00;99.90
58096;DHT22;43908;53.038;6.666;2022-08-21T04:45:21;13.00;99.90
58096;DHT22;43908;53.038;6.666;2022-08-21T04:47:54;13.00;99.90
58096;DHT22;43908;53.038;6.666;2022-08-21T04:50:20;13.00;99.90
58096;DHT22;43908;53.038;6.666;2022-08-21T04:52:47;13.00;99.90
58096;DHT22;43908;53.038;6.666;2022-08-21T04:55:13;13.10;99.90
58096;DHT22;43908;53.038;6.666;2022-08-21T04:57:38;13.10;99.90
58096;DHT22;43908;53.038;6.666;2022-08-21T05:00:04;13.20;99.90
58096;DHT22;43908;53.038;6.666;2022-08-21T05:02:31;13.20;99.90
58096;DHT22;43908;53.038;6.666;2022-08-21T05:04:58;13.20;99.90
58096;DHT22;43908;53.038;6.666;2022-08-21T05:07:25;13.30;99.90
58096;DHT22;43908;53.038;6.666;2022-08-21T05:09:51;13.30;99.90
58096;DHT22;43908;53.038;6.666;2022-08-21T05:12:17;13.30;99.90
58096;DHT22;43908;53.038;6.666;2022-08-21T05:14:43;13.40;99.90
58096;DHT22;43908;53.038;6.666;2022-08-21T05:17:08;13.40;99.90
58096;DHT22;43908;53.038;6.666;2022-08-21T05:19:34;13.50;99.90
58096;DHT22;43908;53.038;6.666;2022-08-21T05:22:00;13.50;99.90
58096;DHT22;43908;53.038;6.666;2022-08-21T05:24:26;13.60;99.90
58096;DHT22;43908;53.038;6.666;2022-08-21T05:26:52;13.70;99.90
58096;DHT22;43908;53.038;6.666;2022-08-21T05:29:18;13.80;99.90
58096;DHT22;43908;53.038;6.666;2022-08-21T05:31:44;13.80;99.90
58096;DHT22;43908;53.038;6.666;2022-08-21T05:34:10;13.90;99.90
58096;DHT22;43908;53.038;6.666;2022-08-21T05:36:36;14.00;99.90
58096;DHT22;43908;53.038;6.666;2022-08-21T05:39:02;14.00;99.90
58096;DHT22;43908;53.038;6.666;2022-08-21T05:41:27;14.10;99.90
58096;DHT22;43908;53.038;6.666;2022-08-21T05:43:53;14.20;99.90
58096;DHT22;43908;53.038;6.666;2022-08-21T05:46:18;14.30;99.90
58096;DHT22;43908;53.038;6.666;2022-08-21T05:48:44;14.50;99.90
58096;DHT22;43908;53.038;6.666;2022-08-21T05:53:35;17.10;99.90
58096;DHT22;43908;53.038;6.666;2022-08-21T05:56:01;19.30;99.90
58096;DHT22;43908;53.038;6.666;2022-08-21T05:58:29;19.60;99.90
58096;DHT22;43908;53.038;6.666;2022-08-21T06:00:55;20.80;99.90
58096;DHT22;43908;53.038;6.666;2022-08-21T06:03:21;21.80;99.90
58096;DHT22;43908;53.038;6.666;2022-08-21T06:05:47;22.60;99.90
58096;DHT22;43908;53.038;6.666;2022-08-21T06:08:14;23.40;99.70
58096;DHT22;43908;53.038;6.666;2022-08-21T06:10:39;23.90;99.40
58096;DHT22;43908;53.038;6.666;2022-08-21T06:13:05;24.60;96.10
58096;DHT22;43908;53.038;6.666;2022-08-21T06:15:30;25.20;94.70
58096;DHT22;43908;53.038;6.666;2022-08-21T06:17:56;25.60;93.10
58096;DHT22;43908;53.038;6.666;2022-08-21T06:20:21;26.00;92.90
58096;DHT22;43908;53.038;6.666;2022-08-21T06:22:47;26.70;92.40
58096;DHT22;43908;53.038;6.666;2022-08-21T06:25:13;27.30;92.80
58096;DHT22;43908;53.038;6.666;2022-08-21T06:27:38;27.50;92.70
58096;DHT22;43908;53.038;6.666;2022-08-21T06:30:04;27.60;91.80
58096;DHT22;43908;53.038;6.666;2022-08-21T06:32:31;27.60;88.80
58096;DHT22;43908;53.038;6.666;2022-08-21T06:34:56;27.80;87.80
58096;DHT22;43908;53.038;6.666;2022-08-21T06:37:22;27.90;90.10
58096;DHT22;43908;53.038;6.666;2022-08-21T06:39:47;28.20;86.70
58096;DHT22;43908;53.038;6.666;2022-08-21T06:42:16;28.20;84.60
58096;DHT22;43908;53.038;6.666;2022-08-21T06:44:42;28.40;87.50
58096;DHT22;43908;53.038;6.666;2022-08-21T06:47:08;28.80;84.50
58096;DHT22;43908;53.038;6.666;2022-08-21T06:49:33;28.70;84.10
58096;DHT22;43908;53.038;6.666;2022-08-21T06:51:59;29.10;84.90
58096;DHT22;43908;53.038;6.666;2022-08-21T06:54:25;29.40;82.70
58096;DHT22;43908;53.038;6.666;2022-08-21T06:56:50;29.30;81.90
58096;DHT22;43908;53.038;6.666;2022-08-21T06:59:16;29.20;85.10
58096;DHT22;43908;53.038;6.666;2022-08-21T07:01:41;29.50;82.40
58096;DHT22;43908;53.038;6.666;2022-08-21T07:04:07;29.70;83.10
58096;DHT22;43908;53.038;6.666;2022-08-21T07:06:32;29.90;82.10
58096;DHT22;43908;53.038;6.666;2022-08-21T07:08:58;30.00;82.10
58096;DHT22;43908;53.038;6.666;2022-08-21T07:11:24;30.20;81.50
58096;DHT22;43908;53.038;6.666;2022-08-21T07:13:49;30.30;77.40
58096;DHT22;43908;53.038;6.666;2022-08-21T07:16:17;30.60;78.00
58096;DHT22;43908;53.038;6.666;2022-08-21T07:18:42;31.10;77.50
58096;DHT22;43908;53.038;6.666;2022-08-21T07:21:08;31.10;78.40
58096;DHT22;43908;53.038;6.666;2022-08-21T07:26:00;31.00;75.70
58096;DHT22;43908;53.038;6.666;2022-08-21T07:28:26;31.40;73.90
58096;DHT22;43908;53.038;6.666;2022-08-21T07:30:52;31.00;75.00
58096;DHT22;43908;53.038;6.666;2022-08-21T07:33:18;31.10;73.30
58096;DHT22;43908;53.038;6.666;2022-08-21T07:35:44;30.80;74.50
58096;DHT22;43908;53.038;6.666;2022-08-21T07:38:09;30.40;74.10
58096;DHT22;43908;53.038;6.666;2022-08-21T07:40:35;30.70;73.70
58096;DHT22;43908;53.038;6.666;2022-08-21T07:43:00;30.90;73.10
58096;DHT22;43908;53.038;6.666;2022-08-21T07:45:26;30.90;72.90
58096;DHT22;43908;53.038;6.666;2022-08-21T07:47:52;30.80;74.60
58096;DHT22;43908;53.038;6.666;2022-08-21T07:50:18;30.80;72.60
58096;DHT22;43908;53.038;6.666;2022-08-21T07:52:44;30.80;72.30
58096;DHT22;43908;53.038;6.666;2022-08-21T07:55:10;30.10;71.70
58096;DHT22;43908;53.038;6.666;2022-08-21T07:57:36;28.80;74.10
58096;DHT22;43908;53.038;6.666;2022-08-21T08:00:06;27.60;75.80
58096;DHT22;43908;53.038;6.666;2022-08-21T08:02:33;26.80;77.10
58096;DHT22;43908;53.038;6.666;2022-08-21T08:05:03;25.80;79.70
58096;DHT22;43908;53.038;6.666;2022-08-21T08:07:28;25.30;80.80
58096;DHT22;43908;53.038;6.666;2022-08-21T08:09:54;24.70;82.30
58096;DHT22;43908;53.038;6.666;2022-08-21T08:12:19;24.40;83.20
58096;DHT22;43908;53.038;6.666;2022-08-21T08:14:45;24.00;84.60
58096;DHT22;43908;53.038;6.666;2022-08-21T08:17:11;23.80;86.00
58096;DHT22;43908;53.038;6.666;2022-08-21T08:19:38;23.60;86.80
58096;DHT22;43908;53.038;6.666;2022-08-21T08:22:12;23.50;86.80
58096;DHT22;43908;53.038;6.666;2022-08-21T08:24:38;23.50;86.60
58096;DHT22;43908;53.038;6.666;2022-08-21T08:27:03;23.40;88.30
58096;DHT22;43908;53.038;6.666;2022-08-21T08:29:29;23.20;88.60
58096;DHT22;43908;53.038;6.666;2022-08-21T08:31:56;23.10;89.30
58096;DHT22;43908;53.038;6.666;2022-08-21T08:34:23;23.10;90.40
58096;DHT22;43908;53.038;6.666;2022-08-21T08:36:48;23.00;90.00
58096;DHT22;43908;53.038;6.666;2022-08-21T08:39:14;23.10;89.60
58096;DHT22;43908;53.038;6.666;2022-08-21T08:41:39;23.00;89.50
58096;DHT22;43908;53.038;6.666;2022-08-21T08:44:06;22.90;89.40
58096;DHT22;43908;53.038;6.666;2022-08-21T08:49:12;22.90;89.50
58096;DHT22;43908;53.038;6.666;2022-08-21T08:54:33;23.00;90.00
58096;DHT22;43908;53.038;6.666;2022-08-21T08:57:00;22.90;90.20
58096;DHT22;43908;53.038;6.666;2022-08-21T08:59:27;23.00;90.40
58096;DHT22;43908;53.038;6.666;2022-08-21T09:01:57;23.10;90.40
58096;DHT22;43908;53.038;6.666;2022-08-21T09:04:23;23.10;90.40
58096;DHT22;43908;53.038;6.666;2022-08-21T09:07:12;23.20;90.10
58096;DHT22;43908;53.038;6.666;2022-08-21T09:09:42;23.40;89.70
58096;DHT22;43908;53.038;6.666;2022-08-21T09:12:15;23.30;90.10
58096;DHT22;43908;53.038;6.666;2022-08-21T09:17:42;23.50;89.30
58096;DHT22;43908;53.038;6.666;2022-08-21T09:20:14;23.40;89.20
58096;DHT22;43908;53.038;6.666;2022-08-21T09:22:49;23.50;89.70
58096;DHT22;43908;53.038;6.666;2022-08-21T09:25:22;23.50;89.20
58096;DHT22;43908;53.038;6.666;2022-08-21T09:27:49;23.60;89.20
58096;DHT22;43908;53.038;6.666;2022-08-21T09:30:15;23.60;90.10
58096;DHT22;43908;53.038;6.666;2022-08-21T09:32:41;23.70;90.20
58096;DHT22;43908;53.038;6.666;2022-08-21T09:37:44;23.80;89.10
58096;DHT22;43908;53.038;6.666;2022-08-21T09:40:23;23.90;89.00
58096;DHT22;43908;53.038;6.666;2022-08-21T09:42:59;23.90;89.00
58096;DHT22;43908;53.038;6.666;2022-08-21T09:45:24;24.00;89.20
58096;DHT22;43908;53.038;6.666;2022-08-21T09:47:50;24.00;89.30
58096;DHT22;43908;53.038;6.666;2022-08-21T09:50:17;24.10;89.20
58096;DHT22;43908;53.038;6.666;2022-08-21T09:52:53;24.10;89.00
58096;DHT22;43908;53.038;6.666;2022-08-21T09:55:23;24.10;90.40
58096;DHT22;43908;53.038;6.666;2022-08-21T09:58:11;24.30;89.00
58096;DHT22;43908;53.038;6.666;2022-08-21T10:00:36;24.30;89.10
58096;DHT22;43908;53.038;6.666;2022-08-21T10:05:37;24.20;89.60
58096;DHT22;43908;53.038;6.666;2022-08-21T10:08:03;24.20;90.10
58096;DHT22;43908;53.038;6.666;2022-08-21T10:10:30;24.20;90.40
58096;DHT22;43908;53.038;6.666;2022-08-21T10:15:51;24.40;89.30
58096;DHT22;43908;53.038;6.666;2022-08-21T10:20:44;24.60;89.50
58096;DHT22;43908;53.038;6.666;2022-08-21T10:23:18;24.50;89.10
58096;DHT22;43908;53.038;6.666;2022-08-21T10:25:54;24.50;89.80
58096;DHT22;43908;53.038;6.666;2022-08-21T10:31:07;24.60;90.00
58096;DHT22;43908;53.038;6.666;2022-08-21T10:33:46;24.80;89.90
58096;DHT22;43908;53.038;6.666;2022-08-21T10:36:18;24.90;89.70
58096;DHT22;43908;53.038;6.666;2022-08-21T10:48:29;25.60;86.80
58096;DHT22;43908;53.038;6.666;2022-08-21T10:51:10;25.70;85.90
58096;DHT22;43908;53.038;6.666;2022-08-21T10:53:41;25.80;86.00
58096;DHT22;43908;53.038;6.666;2022-08-21T11:01:34;26.10;85.30
58096;DHT22;43908;53.038;6.666;2022-08-21T11:04:07;25.90;86.20
58096;DHT22;43908;53.038;6.666;2022-08-21T11:06:35;25.70;87.00
58096;DHT22;43908;53.038;6.666;2022-08-21T11:09:21;25.70;86.70
58096;DHT22;43908;53.038;6.666;2022-08-21T11:11:52;25.70;86.90
58096;DHT22;43908;53.038;6.666;2022-08-21T11:16:46;25.80;85.90
58096;DHT22;43908;53.038;6.666;2022-08-21T11:21:59;25.90;86.80
58096;DHT22;43908;53.038;6.666;2022-08-21T11:36:47;26.20;82.00
58096;DHT22;43908;53.038;6.666;2022-08-21T11:39:38;26.20;83.80
58096;DHT22;43908;53.038;6.666;2022-08-21T11:42:13;26.10;84.40
58096;DHT22;43908;53.038;6.666;2022-08-21T11:44:47;26.00;84.50
58096;DHT22;43908;53.038;6.666;2022-08-21T11:49:51;25.70;84.60
58096;DHT22;43908;53.038;6.666;2022-08-21T11:52:26;25.60;86.20
58096;DHT22;43908;53.038;6.666;2022-08-21T11:54:56;25.40;85.70
58096;DHT22;43908;53.038;6.666;2022-08-21T11:57:36;25.40;85.90
58096;DHT22;43908;53.038;6.666;2022-08-21T12:00:11;25.40;87.50
58096;DHT22;43908;53.038;6.666;2022-08-21T12:02:42;25.30;86.10
58096;DHT22;43908;53.038;6.666;2022-08-21T12:05:09;25.30;87.30
58096;DHT22;43908;53.038;6.666;2022-08-21T12:07:40;25.30;86.80
58096;DHT22;43908;53.038;6.666;2022-08-21T12:10:08;25.20;86.00
58096;DHT22;43908;53.038;6.666;2022-08-21T12:12:35;25.30;87.80
58096;DHT22;43908;53.038;6.666;2022-08-21T12:15:07;25.20;88.30
58096;DHT22;43908;53.038;6.666;2022-08-21T12:17:38;25.20;87.10
58096;DHT22;43908;53.038;6.666;2022-08-21T12:22:47;25.20;88.60
58096;DHT22;43908;53.038;6.666;2022-08-21T12:25:15;25.20;87.80
58096;DHT22;43908;53.038;6.666;2022-08-21T12:27:46;25.10;88.00
58096;DHT22;43908;53.038;6.666;2022-08-21T12:32:55;25.20;87.90
58096;DHT22;43908;53.038;6.666;2022-08-21T12:35:24;25.20;85.90
58096;DHT22;43908;53.038;6.666;2022-08-21T12:37:52;25.10;86.70
58096;DHT22;43908;53.038;6.666;2022-08-21T12:40:23;25.10;88.10
58096;DHT22;43908;53.038;6.666;2022-08-21T12:42:51;25.10;88.10
58096;DHT22;43908;53.038;6.666;2022-08-21T12:45:37;25.20;88.90
58096;DHT22;43908;53.038;6.666;2022-08-21T12:48:26;25.20;88.60
58096;DHT22;43908;53.038;6.666;2022-08-21T12:50:58;25.20;88.40
58096;DHT22;43908;53.038;6.666;2022-08-21T12:53:32;25.20;88.50
58096;DHT22;43908;53.038;6.666;2022-08-21T12:56:01;25.20;87.90
58096;DHT22;43908;53.038;6.666;2022-08-21T12:58:29;25.20;88.20
58096;DHT22;43908;53.038;6.666;2022-08-21T13:01:02;25.10;88.70
58096;DHT22;43908;53.038;6.666;2022-08-21T13:03:28;25.00;88.90
58096;DHT22;43908;53.038;6.666;2022-08-21T13:05:53;25.00;88.70
58096;DHT22;43908;53.038;6.666;2022-08-21T13:08:20;24.90;88.50
58096;DHT22;43908;53.038;6.666;2022-08-21T13:10:46;24.70;88.30
58096;DHT22;43908;53.038;6.666;2022-08-21T13:13:22;24.80;89.40
58096;DHT22;43908;53.038;6.666;2022-08-21T13:15:48;24.70;89.50
58096;DHT22;43908;53.038;6.666;2022-08-21T13:18:21;24.70;90.10
58096;DHT22;43908;53.038;6.666;2022-08-21T13:20:47;24.60;89.10
58096;DHT22;43908;53.038;6.666;2022-08-21T13:23:29;24.40;89.80
58096;DHT22;43908;53.038;6.666;2022-08-21T13:25:55;24.40;89.70
58096;DHT22;43908;53.038;6.666;2022-08-21T13:28:20;24.20;90.30
58096;DHT22;43908;53.038;6.666;2022-08-21T13:30:47;24.20;90.50
58096;DHT22;43908;53.038;6.666;2022-08-21T13:33:14;24.20;90.60
58096;DHT22;43908;53.038;6.666;2022-08-21T13:35:51;24.30;90.80
58096;DHT22;43908;53.038;6.666;2022-08-21T13:38:19;24.30;90.50
58096;DHT22;43908;53.038;6.666;2022-08-21T13:40:49;24.10;90.00
58096;DHT22;43908;53.038;6.666;2022-08-21T13:43:17;24.00;90.20
58096;DHT22;43908;53.038;6.666;2022-08-21T13:45:44;23.80;90.50
58096;DHT22;43908;53.038;6.666;2022-08-21T13:48:12;23.90;90.50
58096;DHT22;43908;53.038;6.666;2022-08-21T13:50:38;24.00;88.70
58096;DHT22;43908;53.038;6.666;2022-08-21T13:53:05;24.10;90.40
58096;DHT22;43908;53.038;6.666;2022-08-21T13:55:38;24.00;89.60
58096;DHT22;43908;53.038;6.666;2022-08-21T13:58:05;24.20;90.50
58096;DHT22;43908;53.038;6.666;2022-08-21T14:00:31;24.40;90.30
58096;DHT22;43908;53.038;6.666;2022-08-21T14:03:06;24.40;88.90
58096;DHT22;43908;53.038;6.666;2022-08-21T14:05:34;24.70;89.50
58096;DHT22;43908;53.038;6.666;2022-08-21T14:10:32;24.90;87.20
58096;DHT22;43908;53.038;6.666;2022-08-21T14:13:04;25.10;84.70
58096;DHT22;43908;53.038;6.666;2022-08-21T14:15:31;25.10;84.40
58096;DHT22;43908;53.038;6.666;2022-08-21T14:18:08;25.40;86.40
58096;DHT22;43908;53.038;6.666;2022-08-21T14:20:35;24.90;84.40
58096;DHT22;43908;53.038;6.666;2022-08-21T14:23:01;25.30;83.40
58096;DHT22;43908;53.038;6.666;2022-08-21T14:25:28;25.10;86.20
58096;DHT22;43908;53.038;6.666;2022-08-21T14:28:09;25.20;84.50
58096;DHT22;43908;53.038;6.666;2022-08-21T14:30:38;24.90;83.50
58096;DHT22;43908;53.038;6.666;2022-08-21T14:33:07;25.10;85.40
58096;DHT22;43908;53.038;6.666;2022-08-21T14:35:34;25.20;86.10
58096;DHT22;43908;53.038;6.666;2022-08-21T14:38:00;25.30;84.30
58096;DHT22;43908;53.038;6.666;2022-08-21T14:40:25;25.40;85.30
58096;DHT22;43908;53.038;6.666;2022-08-21T14:42:51;25.50;87.10
58096;DHT22;43908;53.038;6.666;2022-08-21T14:45:17;25.70;85.00
58096;DHT22;43908;53.038;6.666;2022-08-21T14:47:45;25.70;85.50
58096;DHT22;43908;53.038;6.666;2022-08-21T14:50:11;25.60;84.90
58096;DHT22;43908;53.038;6.666;2022-08-21T14:52:37;25.60;84.60
58096;DHT22;43908;53.038;6.666;2022-08-21T14:55:03;25.60;82.20
58096;DHT22;43908;53.038;6.666;2022-08-21T14:57:30;25.40;80.90
58096;DHT22;43908;53.038;6.666;2022-08-21T14:59:55;25.30;83.80
58096;DHT22;43908;53.038;6.666;2022-08-21T15:02:21;25.40;83.60
58096;DHT22;43908;53.038;6.666;2022-08-21T15:04:47;25.30;81.10
58096;DHT22;43908;53.038;6.666;2022-08-21T15:07:13;25.50;83.90
58096;DHT22;43908;53.038;6.666;2022-08-21T15:09:38;25.70;83.60
58096;DHT22;43908;53.038;6.666;2022-08-21T15:12:04;25.80;83.10
58096;DHT22;43908;53.038;6.666;2022-08-21T15:14:32;25.80;83.00
58096;DHT22;43908;53.038;6.666;2022-08-21T15:16:58;25.90;85.40
58096;DHT22;43908;53.038;6.666;2022-08-21T15:19:24;25.70;83.40
58096;DHT22;43908;53.038;6.666;2022-08-21T15:21:49;25.80;83.80
58096;DHT22;43908;53.038;6.666;2022-08-21T15:24:15;25.80;83.70
58096;DHT22;43908;53.038;6.666;2022-08-21T15:26:40;25.70;84.00
58096;DHT22;43908;53.038;6.666;2022-08-21T15:29:07;25.70;85.00
58096;DHT22;43908;53.038;6.666;2022-08-21T15:31:33;25.70;87.60
58096;DHT22;43908;53.038;6.666;2022-08-21T15:33:59;25.50;87.30
58096;DHT22;43908;53.038;6.666;2022-08-21T15:36:24;25.40;87.90
58096;DHT22;43908;53.038;6.666;2022-08-21T15:38:50;25.20;87.40
58096;DHT22;43908;53.038;6.666;2022-08-21T15:41:15;25.00;86.60
58096;DHT22;43908;53.038;6.666;2022-08-21T15:43:46;25.00;88.20
58096;DHT22;43908;53.038;6.666;2022-08-21T15:46:13;24.80;86.60
58096;DHT22;43908;53.038;6.666;2022-08-21T15:48:39;24.90;88.60
58096;DHT22;43908;53.038;6.666;2022-08-21T15:51:05;24.80;87.30
58096;DHT22;43908;53.038;6.666;2022-08-21T15:53:30;24.60;84.70
58096;DHT22;43908;53.038;6.666;2022-08-21T15:56:04;24.60;86.20
58096;DHT22;43908;53.038;6.666;2022-08-21T15:58:29;24.50;88.90
58096;DHT22;43908;53.038;6.666;2022-08-21T16:00:55;24.50;86.30
58096;DHT22;43908;53.038;6.666;2022-08-21T16:03:23;24.50;88.20
58096;DHT22;43908;53.038;6.666;2022-08-21T16:05:49;24.20;86.70
58096;DHT22;43908;53.038;6.666;2022-08-21T16:08:17;24.30;87.20
58096;DHT22;43908;53.038;6.666;2022-08-21T16:10:42;24.30;86.00
58096;DHT22;43908;53.038;6.666;2022-08-21T16:13:12;24.30;87.70
58096;DHT22;43908;53.038;6.666;2022-08-21T16:15:39;24.40;89.70
58096;DHT22;43908;53.038;6.666;2022-08-21T16:18:05;24.30;86.40
58096;DHT22;43908;53.038;6.666;2022-08-21T16:20:30;24.10;85.70
58096;DHT22;43908;53.038;6.666;2022-08-21T16:22:56;24.10;86.50
58096;DHT22;43908;53.038;6.666;2022-08-21T16:25:22;24.00;86.50
58096;DHT22;43908;53.038;6.666;2022-08-21T16:27:48;23.90;87.00
58096;DHT22;43908;53.038;6.666;2022-08-21T16:30:15;23.90;88.20
58096;DHT22;43908;53.038;6.666;2022-08-21T16:32:41;23.90;90.30
58096;DHT22;43908;53.038;6.666;2022-08-21T16:35:07;23.70;87.60
58096;DHT22;43908;53.038;6.666;2022-08-21T16:37:35;23.70;89.20
58096;DHT22;43908;53.038;6.666;2022-08-21T16:40:00;23.70;87.50
58096;DHT22;43908;53.038;6.666;2022-08-21T16:42:26;23.60;89.40